To NAV CANADA Home Page Login to a new session Search on AWWS site Feedback and Comments Disclaimer Vers la page française équivalente Tips FAQ What's new on the site To the Forecasts and Observations / NOTAM section To "File a Flight Plan" website Publications and other links Update of the User's profile FIC Telephone Numbers My Weather Data Folder Route Weather Data Regional Weather Data Local Weather Data To the Forecasts and Observations / NOTAM section
Request Generated 01/21/2017 at 02:06:22 UTC . Weather information available at that time is displayed.

METAR/TAF

COMOX/BC    

METAR CYQQ 210200Z 00000KT 20SM FEW060 BKN075 OVC100 05/04 A2915 RMK SC1AC6AC2 SLP874=
METAR CYQQ 210100Z 28003KT 20SM FEW060 FEW120 BKN160 BKN200 07/04 A2915 RMK SC0AC2AC3CI2 SLP872=
METAR CYQQ 210000Z 25002KT 20SM FEW030 FEW120 SCT160 BKN200 07/05 A2915 RMK SC0AC2AC2CI2 SLP871=

TAF CYQQ 202339Z 2100/2124 VRB03KT P6SM FEW050 SCT120 BKN240 TEMPO
2100/2106 FEW015 SCT050 BKN120
FM210600 36003KT P6SM SCT015 BKN030 BKN080 TEMPO 2106/2109 P6SM
-SHRA BKN015 OVC030
FM210900 02005KT 6SM -RA BR SCT008 BKN012 OVC025 TEMPO 2109/2115
P6SM NSW FEW008 SCT012 OVC025
FM211500 05003KT P6SM SCT012 BKN030 TEMPO 2115/2124 P6SM -SHRA
BKN012 OVC030
RMK NXT FCST BY 210600Z=
Your time UTC time
Weather data provided by Environment Canada and NAV CANADA